Terminal Aerodrome Forecast
Issued by NWS

Home | Current Version | Previous Version | Text Only | Print | Product List | Glossary On
Versions: 1 2 3 4 5 6 7 8 9 10 11 12 13 14 15 16
000
FTUS44 KBMX 220900 AAB
TAFTCL
TAF AMD
KTCL 220916Z 2209/2306 04006KT P6SM VCSH SCT035 BKN070
     FM221000 04006KT P6SM BKN070
     FM221500 01012G16KT P6SM FEW250
     FM230100 VRB03KT P6SM SKC=

USA.gov is the U.S. government's official web portal to all federal, state and local government web resources and services.